Pagrindinis puslapis
METAR-TAF:

METAR-TAF

Oro uostai :

Akra, Gana

platuma: 05-36N, ilguma: 000-10W, Aukštis: 68 m

METAR: trūkstamas

Laikas: 08:15 (08:15 UTC)

Prognozė

Ataskaita buvo paskelbta 15 valandos ir 15 minutes, ne 17:00 UTC
Prognozė galioja nuo 22 metu 18 UTC su 23 metu 24 UTC
Vėjas 10 kt iš Pietų/Pietvakarių
Matomumas: 6000 m
Mažai debesys ne aukštis 1800 ft
Tapsmas
nuo 22 metu 23 UTC su 23 metu 01 UTC
Matomumas 10 km arba daugiau
nėra debesų žemiau 1500 m ir nėra kamuolinių lietaus debesų
Tikimybė 40%
nuo 23 metu 06 UTC su 23 metu 09 UTC
Vėjas 8 kt iš Vakarų
Matomumas: 2000 m
Su prošvaistėmis ne aukštis 1100 ft
rūkana
Nuo 23 metu 1100 UTC
Vėjas 15 kt iš Pietų
Matomumas: 4000 m
migla

TAF: DGAA 221700Z 2218/2324 21010KT 6000 FEW018 BECMG 2223/2301 CAVOK PROB40 2306/2309 27008KT 2000 BR BKN011 FM231100 19015KT 4000 HZ NSC

Orai ataskaitas ir orų prognozės (METAR, TAF).

turimą stotys yra geltonos ir raudonos taškus žemėlapyje.

Perkelti pele per norėdami pamatyti stoties vardą.

Tada spustelėkite, norėdami matyti oro stebėjimo ir prognozės.

Norėdami pakeisti žemėlapį: spustelėkite ant žalios mygtukų su juodo kryžiaus žemyn,; žalią mygtuką su brūkšneliu, jei norite nutolinti; arba žalių rodyklių gretimoms žemėlapius.


METAR-TAF: